createdAt,value
2018-01-25T00:03:48.328Z,2.20
2018-01-25T00:09:16.518Z,2.20
2018-01-25T00:14:45.484Z,2.20
2018-01-25T00:20:13.709Z,2.20
2018-01-25T00:25:41.907Z,2.20
2018-01-25T00:31:10.077Z,2.30
2018-01-25T00:42:39.443Z,2.50
2018-01-25T00:48:07.621Z,2.60
2018-01-25T00:53:35.808Z,2.60
2018-01-25T00:59:27.303Z,2.60
2018-01-25T01:04:55.495Z,2.60
2018-01-25T01:10:25.657Z,2.60
2018-01-25T01:15:53.876Z,2.60
2018-01-25T01:21:22.086Z,2.60
2018-01-25T01:26:50.264Z,2.70
2018-01-25T01:32:18.462Z,2.80
2018-01-25T01:37:46.663Z,2.90
2018-01-25T01:43:14.837Z,3.10
2018-01-25T01:48:43.257Z,3.10
2018-01-25T01:54:11.463Z,3.30
2018-01-25T01:59:39.656Z,3.30
2018-01-25T02:05:15.909Z,3.40
2018-01-25T02:10:44.111Z,3.40
2018-01-25T02:16:12.293Z,3.30
2018-01-25T02:21:40.504Z,3.30
2018-01-25T02:27:08.677Z,3.20
2018-01-25T02:32:36.870Z,3.30
2018-01-25T02:38:06.023Z,3.20
2018-01-25T02:43:34.200Z,3.10
2018-01-25T02:49:03.212Z,3.10
2018-01-25T02:54:31.432Z,3.10
2018-01-25T02:59:59.639Z,3.10
2018-01-25T03:05:28.102Z,3.00
2018-01-25T03:10:56.364Z,3.00
2018-01-25T03:16:25.531Z,3.00
2018-01-25T03:21:53.738Z,3.00
2018-01-25T03:27:21.922Z,3.00
2018-01-25T03:32:50.861Z,3.00
2018-01-25T03:38:19.044Z,2.90
2018-01-25T03:43:47.256Z,2.80
2018-01-25T03:49:15.469Z,2.70
2018-01-25T03:54:44.374Z,2.70
2018-01-25T04:00:12.841Z,2.70
2018-01-25T04:05:41.027Z,2.70
2018-01-25T04:11:09.217Z,2.80
2018-01-25T04:16:38.179Z,2.90
2018-01-25T04:22:06.340Z,2.90
2018-01-25T04:27:34.780Z,3.00
2018-01-25T04:33:03.250Z,3.20
2018-01-25T04:38:31.452Z,3.30
2018-01-25T04:44:03.618Z,3.30
2018-01-25T04:49:32.823Z,3.30
2018-01-25T04:55:04.550Z,3.40
2018-01-25T05:00:33.697Z,3.40
2018-01-25T05:06:05.789Z,3.30
2018-01-25T05:11:34.046Z,3.30
2018-01-25T05:17:06.627Z,3.30
2018-01-25T05:22:34.843Z,3.30
2018-01-25T05:28:09.257Z,3.30
2018-01-25T05:33:37.477Z,3.40
2018-01-25T05:39:07.657Z,3.50
2018-01-25T05:44:35.877Z,3.60
2018-01-25T05:50:05.029Z,3.80
2018-01-25T05:55:33.220Z,3.80
2018-01-25T06:01:01.456Z,3.70
2018-01-25T06:06:29.649Z,3.70
2018-01-25T06:11:58.632Z,3.70
2018-01-25T06:17:26.833Z,3.60
2018-01-25T06:22:55.036Z,3.60
2018-01-25T06:28:24.011Z,3.50
2018-01-25T06:33:52.202Z,3.40
2018-01-25T06:39:20.373Z,3.30
2018-01-25T06:44:48.559Z,3.30
2018-01-25T06:50:16.764Z,3.20
2018-01-25T06:55:48.700Z,3.10
2018-01-25T07:01:16.882Z,3.10
2018-01-25T07:06:45.827Z,3.10
2018-01-25T07:12:14.044Z,3.10
2018-01-25T07:17:42.274Z,3.10
2018-01-25T07:23:10.471Z,3.20
2018-01-25T07:28:38.683Z,3.30
2018-01-25T07:34:06.887Z,3.30
2018-01-25T07:39:35.328Z,3.30
2018-01-25T07:45:03.565Z,3.40
2018-01-25T07:50:33.485Z,3.50
2018-01-25T07:56:01.671Z,3.70
2018-01-25T08:01:29.873Z,3.80
2018-01-25T08:06:59.801Z,4.00
2018-01-25T08:12:28.011Z,4.10
2018-01-25T08:17:56.273Z,4.20
2018-01-25T08:23:27.204Z,4.30
2018-01-25T08:28:55.411Z,4.50
2018-01-25T08:34:23.607Z,4.60
2018-01-25T08:39:52.786Z,4.80
2018-01-25T08:45:20.980Z,5.00
2018-01-25T08:50:50.322Z,5.20
2018-01-25T08:56:18.588Z,5.50
2018-01-25T09:01:46.791Z,5.80
2018-01-25T09:07:16.989Z,6.10
2018-01-25T09:12:45.173Z,6.30
2018-01-25T09:18:13.376Z,6.70
2018-01-25T09:23:41.598Z,7.00
2018-01-25T09:29:09.811Z,7.30
2018-01-25T09:34:38.751Z,7.70
2018-01-25T09:40:19.366Z,8.10
2018-01-25T09:45:48.340Z,8.40
2018-01-25T09:51:16.609Z,8.80
2018-01-25T09:56:45.575Z,9.10
2018-01-25T10:02:13.802Z,9.40
2018-01-25T10:07:42.965Z,9.80
2018-01-25T10:13:11.190Z,10.20
2018-01-25T10:18:39.386Z,10.50
2018-01-25T10:24:07.608Z,10.80
2018-01-25T10:29:55.366Z,11.20
2018-01-25T10:35:24.338Z,11.50
2018-01-25T10:40:52.533Z,11.80
2018-01-25T10:46:20.734Z,12.10
2018-01-25T10:51:49.728Z,12.40
2018-01-25T10:57:17.967Z,12.70
2018-01-25T11:02:46.175Z,13.00
2018-01-25T11:08:14.522Z,13.30
2018-01-25T11:13:43.864Z,13.50
2018-01-25T11:19:13.742Z,13.80
2018-01-25T11:24:42.019Z,14.10
2018-01-25T11:30:10.231Z,14.30
2018-01-25T11:35:38.434Z,14.40
2018-01-25T11:41:06.630Z,14.60
2018-01-25T11:46:34.831Z,14.70
2018-01-25T11:52:03.064Z,14.80
2018-01-25T11:57:32.042Z,14.70
2018-01-25T12:03:00.256Z,14.60
2018-01-25T12:08:28.501Z,14.50
2018-01-25T12:13:56.727Z,14.50
2018-01-25T12:19:24.913Z,14.60
2018-01-25T12:24:53.116Z,14.70
2018-01-25T12:30:21.309Z,14.80
2018-01-25T12:35:49.522Z,14.90
2018-01-25T12:41:18.642Z,15.00
2018-01-25T12:46:46.848Z,15.00
2018-01-25T12:52:15.056Z,15.10
2018-01-25T12:57:44.034Z,15.20
2018-01-25T13:03:12.269Z,15.20
2018-01-25T13:08:40.476Z,15.10
2018-01-25T13:14:08.680Z,15.00
2018-01-25T13:19:36.900Z,14.90
2018-01-25T13:25:05.123Z,14.80
2018-01-25T13:30:33.330Z,14.70
2018-01-25T13:36:01.520Z,14.60
2018-01-25T13:41:29.728Z,14.60
2018-01-25T13:46:57.912Z,14.40
2018-01-25T13:52:31.678Z,14.20
2018-01-25T13:57:59.895Z,14.00
2018-01-25T14:03:28.196Z,13.80
2018-01-25T14:08:56.402Z,13.60
2018-01-25T14:14:25.380Z,13.40
2018-01-25T14:19:53.571Z,13.20
2018-01-25T14:25:23.761Z,13.00
2018-01-25T14:30:51.959Z,12.90
2018-01-25T14:36:20.194Z,12.70
2018-01-25T14:41:48.398Z,12.60
2018-01-25T14:47:16.578Z,12.40
2018-01-25T14:52:44.799Z,12.20
2018-01-25T14:58:24.227Z,12.10
2018-01-25T15:03:53.244Z,11.90
2018-01-25T15:09:23.918Z,11.70
2018-01-25T15:14:52.896Z,11.60
2018-01-25T15:20:21.093Z,11.40
2018-01-25T15:25:55.154Z,11.30
2018-01-25T15:31:23.363Z,11.10
2018-01-25T15:36:52.471Z,10.90
2018-01-25T15:42:20.700Z,10.80
2018-01-25T15:47:48.950Z,10.60
2018-01-25T15:53:17.929Z,10.40
2018-01-25T15:58:46.891Z,10.30
2018-01-25T16:04:15.107Z,10.20
2018-01-25T16:09:43.368Z,10.00
2018-01-25T16:15:13.300Z,9.90
2018-01-25T16:20:41.545Z,9.80
2018-01-25T16:26:10.512Z,9.60
2018-01-25T16:31:38.798Z,9.50
2018-01-25T16:37:07.856Z,9.40
2018-01-25T16:42:36.096Z,9.30
2018-01-25T16:48:04.287Z,9.10
2018-01-25T16:53:33.229Z,9.00
2018-01-25T16:59:01.405Z,8.90
2018-01-25T17:04:29.589Z,8.80
2018-01-25T17:09:57.765Z,8.70
2018-01-25T17:15:25.961Z,8.60
2018-01-25T17:20:54.149Z,8.40
2018-01-25T17:26:22.332Z,8.30
2018-01-25T17:31:50.516Z,8.20
2018-01-25T17:37:18.711Z,8.10
2018-01-25T17:42:46.936Z,7.90
2018-01-25T17:48:15.210Z,7.80
2018-01-25T17:53:43.486Z,7.80
2018-01-25T17:59:12.355Z,7.60
2018-01-25T18:04:40.568Z,7.50
2018-01-25T18:10:09.752Z,7.40
2018-01-25T18:15:39.216Z,7.30
2018-01-25T18:21:09.204Z,7.20
2018-01-25T18:26:37.958Z,7.10
2018-01-25T18:32:06.202Z,7.00
2018-01-25T18:37:34.424Z,6.90
2018-01-25T18:43:13.895Z,6.80
2018-01-25T18:48:42.139Z,6.70
2018-01-25T18:54:11.347Z,6.60
2018-01-25T18:59:39.561Z,6.60
2018-01-25T19:05:07.944Z,6.50
2018-01-25T19:10:36.162Z,6.40
2018-01-25T19:16:12.889Z,6.40
2018-01-25T19:21:41.142Z,6.40
2018-01-25T19:27:09.484Z,6.30
2018-01-25T19:32:37.679Z,6.30
2018-01-25T19:38:12.329Z,6.20
2018-01-25T19:43:40.525Z,6.20
2018-01-25T19:49:08.838Z,6.20
2018-01-25T19:54:37.225Z,6.10
2018-01-25T20:00:05.429Z,6.10
2018-01-25T20:05:34.451Z,5.90
2018-01-25T20:11:02.650Z,5.80
2018-01-25T20:16:30.872Z,5.70
2018-01-25T20:21:59.078Z,5.60
2018-01-25T20:27:27.290Z,5.50
2018-01-25T20:32:56.437Z,5.40
2018-01-25T20:38:24.637Z,5.30
2018-01-25T20:43:54.607Z,5.20
2018-01-25T20:49:22.785Z,5.00
2018-01-25T20:54:50.981Z,5.00
2018-01-25T21:00:19.186Z,5.00
2018-01-25T21:11:50.716Z,4.90
2018-01-25T21:17:18.925Z,4.80
2018-01-25T21:22:47.125Z,4.80
2018-01-25T21:28:15.329Z,4.70
2018-01-25T21:33:57.438Z,4.70
2018-01-25T21:39:25.658Z,4.70
2018-01-25T21:45:03.463Z,4.70
2018-01-25T21:50:40.862Z,4.70
2018-01-25T21:56:10.716Z,4.60
2018-01-25T22:01:43.410Z,4.70
2018-01-25T22:07:11.654Z,4.70
2018-01-25T22:12:40.638Z,4.70
2018-01-25T22:18:14.380Z,4.70
2018-01-25T22:23:42.580Z,4.60
2018-01-25T22:29:14.629Z,4.60
2018-01-25T22:34:43.011Z,4.60
2018-01-25T22:40:14.410Z,4.60
2018-01-25T22:45:48.309Z,4.50
2018-01-25T22:51:16.796Z,4.50
2018-01-25T22:56:44.995Z,4.50
2018-01-25T23:02:28.376Z,4.50
2018-01-25T23:07:58.576Z,4.50
2018-01-25T23:13:40.972Z,4.50
2018-01-25T23:19:09.485Z,4.50
2018-01-25T23:24:37.744Z,4.60
2018-01-25T23:30:06.759Z,4.60
2018-01-25T23:35:34.963Z,4.60
2018-01-25T23:41:03.196Z,4.60
2018-01-25T23:46:35.344Z,4.60
2018-01-25T23:52:04.328Z,4.60
2018-01-25T23:57:32.544Z,4.60
